createdAt,value
2018-03-14T00:00:43.691Z,77.60
2018-03-14T00:03:09.907Z,78.00
2018-03-14T00:05:36.845Z,77.30
2018-03-14T00:08:03.122Z,77.30
2018-03-14T00:10:30.035Z,77.60
2018-03-14T00:12:56.258Z,77.10
2018-03-14T00:15:22.442Z,77.30
2018-03-14T00:17:48.662Z,77.30
2018-03-14T00:20:16.537Z,77.80
2018-03-14T00:22:42.741Z,77.60
2018-03-14T00:25:09.690Z,77.50
2018-03-14T00:27:36.664Z,78.00
2018-03-14T00:30:03.676Z,77.00
2018-03-14T00:32:30.620Z,77.50
2018-03-14T00:34:56.808Z,76.60
2018-03-14T00:37:23.132Z,76.20
2018-03-14T00:39:49.323Z,77.30
2018-03-14T00:42:16.255Z,77.80
2018-03-14T00:44:42.495Z,77.10
2018-03-14T00:47:09.414Z,77.30
2018-03-14T00:49:35.623Z,76.90
2018-03-14T00:52:01.837Z,77.60
2018-03-14T00:54:28.065Z,76.50
2018-03-14T00:56:54.230Z,76.40
2018-03-14T00:59:20.445Z,76.30
2018-03-14T01:01:46.672Z,76.40
2018-03-14T01:04:12.891Z,76.50
2018-03-14T01:06:39.083Z,76.80
2018-03-14T01:09:05.297Z,77.00
2018-03-14T01:11:32.272Z,77.50
2018-03-14T01:13:58.489Z,77.10
2018-03-14T01:16:24.697Z,77.00
2018-03-14T01:18:51.652Z,77.80
2018-03-14T01:21:18.619Z,77.70
2018-03-14T01:23:44.776Z,77.70
2018-03-14T01:26:11.100Z,77.60
2018-03-14T01:28:37.297Z,77.30
2018-03-14T01:31:03.493Z,77.80
2018-03-14T01:33:29.681Z,77.20
2018-03-14T01:35:55.859Z,77.30
2018-03-14T01:38:22.068Z,77.50
2018-03-14T01:40:48.255Z,77.20
2018-03-14T01:43:15.983Z,77.60
2018-03-14T01:45:42.969Z,77.80
2018-03-14T01:48:09.191Z,77.80
2018-03-14T01:50:35.378Z,77.30
2018-03-14T01:53:14.728Z,78.10
2018-03-14T01:55:42.422Z,77.60
2018-03-14T01:58:08.640Z,78.10
2018-03-14T02:00:34.877Z,77.90
2018-03-14T02:03:01.098Z,78.00
2018-03-14T02:05:27.292Z,78.30
2018-03-14T02:07:54.288Z,78.90
2018-03-14T02:10:20.463Z,78.70
2018-03-14T02:12:46.684Z,78.10
2018-03-14T02:15:12.868Z,77.80
2018-03-14T02:17:39.050Z,78.00
2018-03-14T02:20:05.262Z,77.90
2018-03-14T02:22:31.420Z,78.30
2018-03-14T02:24:58.368Z,78.60
2018-03-14T02:27:25.297Z,78.80
2018-03-14T02:29:51.512Z,78.70
2018-03-14T02:32:17.683Z,79.00
2018-03-14T02:34:43.885Z,78.80
2018-03-14T02:37:10.922Z,79.50
2018-03-14T02:39:37.104Z,78.80
2018-03-14T02:42:03.275Z,78.80
2018-03-14T02:44:29.462Z,79.40
2018-03-14T02:46:55.662Z,78.80
2018-03-14T02:49:22.550Z,79.30
2018-03-14T02:51:48.779Z,79.30
2018-03-14T02:54:14.971Z,79.60
2018-03-14T02:56:41.914Z,80.20
2018-03-14T02:59:08.845Z,80.20
2018-03-14T03:01:35.402Z,79.40
2018-03-14T03:04:02.320Z,79.70
2018-03-14T03:06:29.477Z,79.40
2018-03-14T03:08:56.429Z,79.30
2018-03-14T03:11:23.376Z,79.70
2018-03-14T03:13:50.284Z,79.60
2018-03-14T03:16:16.484Z,79.00
2018-03-14T03:18:42.710Z,78.60
2018-03-14T03:21:08.878Z,78.70
2018-03-14T03:23:35.064Z,78.60
2018-03-14T03:26:01.282Z,78.10
2018-03-14T03:28:27.462Z,78.30
2018-03-14T03:30:53.649Z,78.60
2018-03-14T03:33:34.763Z,78.80
2018-03-14T03:36:00.919Z,79.30
2018-03-14T03:38:27.064Z,79.00
2018-03-14T03:40:55.032Z,79.10
2018-03-14T03:43:21.184Z,79.10
2018-03-14T03:45:47.456Z,78.80
2018-03-14T03:48:13.665Z,78.90
2018-03-14T03:50:39.863Z,78.90
2018-03-14T03:53:06.035Z,78.90
2018-03-14T03:55:32.241Z,78.90
2018-03-14T03:57:58.452Z,78.90
2018-03-14T04:00:24.672Z,78.80
2018-03-14T04:02:50.915Z,78.80
2018-03-14T04:05:17.106Z,79.00
2018-03-14T04:07:44.100Z,79.40
2018-03-14T04:10:10.348Z,78.80
2018-03-14T04:12:36.601Z,78.80
2018-03-14T04:15:02.807Z,78.90
2018-03-14T04:17:28.998Z,82.00
2018-03-14T04:19:55.201Z,79.00
2018-03-14T04:22:22.142Z,79.50
2018-03-14T04:24:49.106Z,79.50
2018-03-14T04:27:16.059Z,78.80
2018-03-14T04:29:43.041Z,79.70
2018-03-14T04:32:09.241Z,79.40
2018-03-14T04:34:35.458Z,79.30
2018-03-14T04:37:02.398Z,79.50
2018-03-14T04:39:29.332Z,79.60
2018-03-14T04:41:56.263Z,80.00
2018-03-14T04:44:22.482Z,79.40
2018-03-14T04:46:48.649Z,79.10
2018-03-14T04:49:15.618Z,79.40
2018-03-14T04:51:41.867Z,79.50
2018-03-14T04:54:08.106Z,79.90
2018-03-14T04:56:34.291Z,80.30
2018-03-14T04:59:00.482Z,80.30
2018-03-14T05:01:41.590Z,80.60
2018-03-14T05:04:07.803Z,80.60
2018-03-14T05:06:34.756Z,81.00
2018-03-14T05:09:01.712Z,80.80
2018-03-14T05:11:27.919Z,80.40
2018-03-14T05:13:54.500Z,80.30
2018-03-14T05:16:20.721Z,80.40
2018-03-14T05:18:46.917Z,80.50
2018-03-14T05:21:13.503Z,80.50
2018-03-14T05:23:39.737Z,80.50
2018-03-14T05:26:05.948Z,80.90
2018-03-14T05:28:32.097Z,81.00
2018-03-14T05:30:58.364Z,80.80
2018-03-14T05:33:24.535Z,81.10
2018-03-14T05:45:35.760Z,81.10
2018-03-14T05:48:02.763Z,81.70
2018-03-14T05:50:28.943Z,81.20
2018-03-14T05:52:55.148Z,81.20
2018-03-14T05:55:22.173Z,81.50
2018-03-14T05:57:48.953Z,80.80
2018-03-14T07:22:12.962Z,75.50
2018-03-14T07:24:39.156Z,91.70
2018-03-14T07:27:06.462Z,75.70
2018-03-14T07:29:33.440Z,74.50
2018-03-14T07:32:00.442Z,73.50
2018-03-14T07:34:27.010Z,72.90
2018-03-14T07:36:53.954Z,73.60
2018-03-14T07:39:20.881Z,73.70
2018-03-14T07:41:47.453Z,81.30
2018-03-14T07:44:13.704Z,93.10
2018-03-14T07:46:39.920Z,85.80
2018-03-14T07:58:51.152Z,73.40
2018-03-14T08:01:18.102Z,73.50
2018-03-14T08:03:44.396Z,73.00
2018-03-14T08:06:10.692Z,73.30
2018-03-14T08:08:37.165Z,74.60
2018-03-14T08:11:03.652Z,76.50
2018-03-14T08:13:29.946Z,73.70
2018-03-14T08:15:56.190Z,71.70
2018-03-14T08:18:23.097Z,71.80
2018-03-14T08:20:49.310Z,71.70
2018-03-14T08:23:15.896Z,68.90
2018-03-14T08:25:42.835Z,69.10
2018-03-14T08:28:10.535Z,68.50
2018-03-14T08:30:36.725Z,68.60
2018-03-14T08:33:03.657Z,65.80
2018-03-14T08:35:29.842Z,69.60
2018-03-14T08:37:56.088Z,65.20
2018-03-14T08:40:22.304Z,68.00
2018-03-14T08:42:49.273Z,65.80
2018-03-14T08:45:17.015Z,65.30
2018-03-14T08:47:43.231Z,66.00
2018-03-14T08:50:10.554Z,66.90
2018-03-14T08:52:37.471Z,67.00
2018-03-14T08:55:03.864Z,67.10
2018-03-14T08:57:30.083Z,66.80
2018-03-14T08:59:56.312Z,67.10
2018-03-14T09:02:22.570Z,67.10
2018-03-14T09:04:48.822Z,67.00
2018-03-14T09:07:15.832Z,66.50
2018-03-14T09:09:42.234Z,65.80
2018-03-14T09:12:09.489Z,64.30
2018-03-14T09:14:36.574Z,63.50
2018-03-14T09:17:02.748Z,63.20
2018-03-14T09:19:28.953Z,65.50
2018-03-14T09:21:56.152Z,65.00
2018-03-14T09:24:23.227Z,65.60
2018-03-14T09:26:49.845Z,64.40
2018-03-14T09:29:16.065Z,64.60
2018-03-14T09:31:43.048Z,64.70
2018-03-14T09:34:09.292Z,62.10
2018-03-14T09:36:35.476Z,62.60
2018-03-14T09:39:01.678Z,61.80
2018-03-14T09:41:27.868Z,62.20
2018-03-14T09:43:54.105Z,60.10
2018-03-14T09:46:20.251Z,55.20
2018-03-14T09:48:46.444Z,52.10
2018-03-14T09:51:12.632Z,49.80
2018-03-14T09:53:39.588Z,49.90
2018-03-14T09:56:06.523Z,51.10
2018-03-14T09:58:33.580Z,52.40
2018-03-14T10:01:00.520Z,54.60
2018-03-14T10:03:27.203Z,54.50
2018-03-14T10:05:53.446Z,57.00
2018-03-14T10:08:19.671Z,53.80
2018-03-14T10:10:45.840Z,50.50
2018-03-14T10:13:12.395Z,45.90
2018-03-14T10:15:38.585Z,45.50
2018-03-14T10:18:05.127Z,43.40
2018-03-14T10:20:32.334Z,45.10
2018-03-14T10:22:58.513Z,42.70
2018-03-14T10:25:24.753Z,42.30
2018-03-14T10:27:51.760Z,42.80
2018-03-14T10:30:17.967Z,43.50
2018-03-14T10:32:44.156Z,43.70
2018-03-14T10:35:11.134Z,44.50
2018-03-14T10:37:37.304Z,45.20
2018-03-14T10:40:05.055Z,45.70
2018-03-14T10:42:32.024Z,43.60
2018-03-14T10:44:58.223Z,42.80
2018-03-14T10:47:24.416Z,41.80
2018-03-14T10:49:50.634Z,42.90
2018-03-14T10:52:16.847Z,41.10
2018-03-14T10:54:43.423Z,41.30
2018-03-14T10:57:09.650Z,41.40
2018-03-14T10:59:35.819Z,43.60
2018-03-14T11:02:08.215Z,43.40
2018-03-14T11:04:35.218Z,46.70
2018-03-14T11:07:01.486Z,46.80
2018-03-14T11:19:12.820Z,48.90
2018-03-14T11:21:39.044Z,47.80
2018-03-14T11:24:05.216Z,50.20
2018-03-14T11:26:32.233Z,51.10
2018-03-14T11:28:58.416Z,50.60
2018-03-14T11:31:24.683Z,50.90
2018-03-14T11:33:50.884Z,52.60
2018-03-14T11:36:17.061Z,46.40
2018-03-14T11:38:43.346Z,47.40
2018-03-14T11:41:09.533Z,47.20
2018-03-14T11:43:36.478Z,45.90
2018-03-14T11:46:03.543Z,46.50
2018-03-14T11:48:29.728Z,44.60
2018-03-14T11:50:55.920Z,41.00
2018-03-14T11:53:22.982Z,36.80
2018-03-14T11:55:49.172Z,39.50
2018-03-14T11:58:15.380Z,35.10
2018-03-14T12:00:42.343Z,32.90
2018-03-14T12:03:10.057Z,31.40
2018-03-14T12:05:36.273Z,31.70
2018-03-14T12:08:02.495Z,31.40
2018-03-14T12:10:28.691Z,30.40
2018-03-14T12:12:56.668Z,28.90
2018-03-14T12:15:22.842Z,28.90
2018-03-14T12:17:49.021Z,33.00
2018-03-14T12:20:16.221Z,35.50
2018-03-14T12:22:43.351Z,36.10
2018-03-14T12:25:09.913Z,37.40
2018-03-14T12:27:36.064Z,37.90
2018-03-14T12:30:03.041Z,39.10
2018-03-14T12:32:29.306Z,38.30
2018-03-14T12:34:55.496Z,33.80
2018-03-14T12:37:21.709Z,34.30
2018-03-14T12:39:48.639Z,29.00
2018-03-14T12:42:15.573Z,27.60
2018-03-14T12:44:41.764Z,28.10
2018-03-14T12:47:08.370Z,27.90
2018-03-14T12:49:35.286Z,28.70
2018-03-14T12:52:02.007Z,28.50
2018-03-14T12:54:28.340Z,29.60
2018-03-14T12:56:54.597Z,31.80
2018-03-14T12:59:20.866Z,36.00
2018-03-14T13:01:47.096Z,37.40
2018-03-14T13:04:13.272Z,38.30
2018-03-14T13:06:39.566Z,39.30
2018-03-14T13:09:05.852Z,40.00
2018-03-14T13:11:33.203Z,42.10
2018-03-14T13:13:59.362Z,41.90
2018-03-14T13:16:25.566Z,42.70
2018-03-14T13:18:52.631Z,43.70
2018-03-14T13:21:19.611Z,44.20
2018-03-14T13:23:45.878Z,40.20
2018-03-14T13:26:12.098Z,40.60
2018-03-14T13:28:38.304Z,36.60
2018-03-14T13:31:04.514Z,37.40
2018-03-14T13:33:30.692Z,39.90
2018-03-14T13:35:56.892Z,40.70
2018-03-14T13:38:23.800Z,42.90
2018-03-14T13:40:49.995Z,42.80
2018-03-14T13:43:16.200Z,44.40
2018-03-14T13:45:42.395Z,44.80
2018-03-14T13:48:08.606Z,46.10
2018-03-14T13:50:35.563Z,46.30
2018-03-14T14:02:46.822Z,46.30
2018-03-14T14:05:12.998Z,44.20
2018-03-14T14:07:39.217Z,43.50
2018-03-14T14:10:05.428Z,43.90
2018-03-14T14:12:31.630Z,43.10
2018-03-14T14:14:57.869Z,41.80
2018-03-14T14:17:24.033Z,41.10
2018-03-14T14:19:50.993Z,40.70
2018-03-14T14:22:18.472Z,40.60
2018-03-14T14:24:44.858Z,39.60
2018-03-14T14:27:11.064Z,39.40
2018-03-14T14:29:37.292Z,39.80
2018-03-14T14:32:03.513Z,39.70
2018-03-14T14:34:29.748Z,39.30
2018-03-14T14:36:55.923Z,40.00
2018-03-14T14:39:22.107Z,40.50
2018-03-14T14:41:48.791Z,40.10
2018-03-14T14:44:15.010Z,39.80
2018-03-14T14:46:41.928Z,40.40
2018-03-14T14:49:08.112Z,42.60
2018-03-14T14:51:35.083Z,42.50
2018-03-14T14:54:01.299Z,42.50
2018-03-14T14:56:28.296Z,43.10
2018-03-14T14:58:54.485Z,43.20
2018-03-14T15:01:20.697Z,44.30
2018-03-14T15:03:47.708Z,43.30
2018-03-14T15:06:13.943Z,43.30
2018-03-14T15:08:40.102Z,42.90
2018-03-14T15:11:07.147Z,44.50
2018-03-14T15:13:34.133Z,44.50
2018-03-14T15:16:00.335Z,44.50
2018-03-14T15:18:26.525Z,45.30
2018-03-14T15:20:52.744Z,46.00
2018-03-14T15:23:18.943Z,46.50
2018-03-14T15:25:45.151Z,46.00
2018-03-14T15:28:11.487Z,46.50
2018-03-14T15:30:37.676Z,47.20
2018-03-14T15:33:03.942Z,46.70
2018-03-14T15:35:30.100Z,46.30
2018-03-14T15:37:56.293Z,46.10
2018-03-14T15:40:22.488Z,46.50
2018-03-14T15:42:48.712Z,46.80
2018-03-14T15:45:14.925Z,47.50
2018-03-14T15:47:41.092Z,47.80
2018-03-14T15:59:53.363Z,48.50
2018-03-14T16:02:20.277Z,48.50
2018-03-14T16:04:46.473Z,48.40
2018-03-14T16:07:12.687Z,49.00
2018-03-14T16:09:38.897Z,49.10
2018-03-14T16:12:05.834Z,49.70
2018-03-14T16:14:32.769Z,49.90
2018-03-14T16:16:59.016Z,49.80
2018-03-14T16:19:25.205Z,49.70
2018-03-14T16:21:51.446Z,49.80
2018-03-14T16:24:17.696Z,50.60
2018-03-14T16:26:44.689Z,51.00
2018-03-14T16:29:10.874Z,51.00
2018-03-14T16:31:37.841Z,51.20
2018-03-14T16:34:04.094Z,51.10
2018-03-14T16:36:30.314Z,51.40
2018-03-14T16:38:57.527Z,52.20
2018-03-14T16:41:24.570Z,52.30
2018-03-14T16:43:51.579Z,52.50
2018-03-14T16:46:17.777Z,52.50
2018-03-14T16:48:44.027Z,52.60
2018-03-14T16:51:10.238Z,52.50
2018-03-14T16:53:36.447Z,52.50
2018-03-14T16:56:03.374Z,52.90
2018-03-14T16:58:29.600Z,52.90
2018-03-14T17:00:55.816Z,53.30
2018-03-14T17:03:22.614Z,53.50
2018-03-14T17:05:48.934Z,53.40
2018-03-14T17:08:15.226Z,53.60
2018-03-14T17:10:41.430Z,53.20
2018-03-14T17:26:07.701Z,53.70
2018-03-14T17:28:35.058Z,54.70
2018-03-14T17:31:02.043Z,55.40
2018-03-14T17:33:28.275Z,55.40
2018-03-14T17:35:54.489Z,55.40
2018-03-14T17:38:20.672Z,55.60
2018-03-14T17:40:46.936Z,55.50
2018-03-14T17:43:13.226Z,55.30
2018-03-14T17:45:40.363Z,55.00
2018-03-14T17:48:06.657Z,55.10
2018-03-14T17:50:32.891Z,55.70
2018-03-14T17:52:59.134Z,56.00
2018-03-14T17:55:25.427Z,55.90
2018-03-14T17:57:51.635Z,56.00
2018-03-14T18:00:17.849Z,55.90
2018-03-14T18:02:44.037Z,55.90
2018-03-14T18:05:10.238Z,56.00
2018-03-14T18:07:37.249Z,56.20
2018-03-14T18:10:04.285Z,56.20
2018-03-14T18:12:30.505Z,56.30
2018-03-14T18:14:56.707Z,56.30
2018-03-14T18:17:22.962Z,56.70
2018-03-14T18:19:49.214Z,57.30
2018-03-14T18:22:15.378Z,57.40
2018-03-14T18:24:42.316Z,57.30
2018-03-14T18:27:09.232Z,57.90
2018-03-14T18:29:35.461Z,57.90
2018-03-14T18:32:01.684Z,58.00
2018-03-14T18:34:27.833Z,58.10
2018-03-14T18:36:54.037Z,59.00
2018-03-14T18:39:20.284Z,58.90
2018-03-14T18:41:47.703Z,59.10
2018-03-14T18:44:13.924Z,59.30
2018-03-14T18:46:40.146Z,59.50
2018-03-14T18:49:06.425Z,59.60
2018-03-14T18:51:32.649Z,59.90
2018-03-14T18:53:58.867Z,60.10
2018-03-14T18:56:25.043Z,60.00
2018-03-14T18:58:52.123Z,59.70
2018-03-14T19:01:18.409Z,60.20
2018-03-14T19:03:45.401Z,60.80
2018-03-14T19:06:11.659Z,60.70
2018-03-14T19:08:37.986Z,60.80
2018-03-14T19:11:05.478Z,61.00
2018-03-14T19:23:21.715Z,62.10
2018-03-14T19:25:48.007Z,61.90
2018-03-14T19:28:14.462Z,62.10
2018-03-14T19:30:40.682Z,61.90
2018-03-14T19:33:06.917Z,61.60
2018-03-14T19:35:33.190Z,61.80
2018-03-14T19:38:00.238Z,61.70
2018-03-14T19:40:26.414Z,61.70
2018-03-14T19:42:52.677Z,61.90
2018-03-14T19:45:18.991Z,62.00
2018-03-14T19:47:45.328Z,61.80
2018-03-14T19:50:11.522Z,62.10
2018-03-14T19:52:37.712Z,62.20
2018-03-14T19:55:03.949Z,61.80
2018-03-14T19:57:30.915Z,62.40
2018-03-14T19:59:57.111Z,62.40
2018-03-14T20:02:23.329Z,62.50
2018-03-14T20:04:49.534Z,62.10
2018-03-14T20:07:15.799Z,62.20
2018-03-14T20:09:42.050Z,62.50
2018-03-14T20:12:09.003Z,62.60
2018-03-14T20:14:35.207Z,62.60
2018-03-14T20:17:01.464Z,62.40
2018-03-14T20:19:27.700Z,62.80
2018-03-14T20:21:53.902Z,63.10
2018-03-14T20:24:20.898Z,63.20
2018-03-14T20:26:47.132Z,63.20
2018-03-14T20:29:13.380Z,63.50
2018-03-14T20:31:39.629Z,63.40
2018-03-14T20:34:06.732Z,63.80
2018-03-14T20:36:32.934Z,63.90
2018-03-14T20:38:59.164Z,64.10
2018-03-14T20:41:25.417Z,64.20
2018-03-14T20:43:51.637Z,64.30
2018-03-14T20:46:17.854Z,64.70
2018-03-14T20:48:44.103Z,64.70
2018-03-14T20:51:10.347Z,64.70
2018-03-14T20:53:36.592Z,64.80
2018-03-14T20:56:02.887Z,65.10
2018-03-14T20:58:29.116Z,65.40
2018-03-14T21:00:55.346Z,65.60
2018-03-14T21:03:21.554Z,66.00
2018-03-14T21:05:47.897Z,66.20
2018-03-14T21:08:14.110Z,66.30
2018-03-14T21:10:41.037Z,66.60
2018-03-14T21:13:07.254Z,66.60
2018-03-14T21:15:33.459Z,67.10
2018-03-14T21:17:59.674Z,67.30
2018-03-14T21:20:25.940Z,67.50
2018-03-14T21:22:52.192Z,67.30
2018-03-14T21:25:19.121Z,67.40
2018-03-14T21:27:45.318Z,67.40
2018-03-14T21:30:11.569Z,67.50
2018-03-14T21:32:37.754Z,67.60
2018-03-14T21:35:04.017Z,67.70
2018-03-14T21:37:30.246Z,67.80
2018-03-14T21:39:56.750Z,67.90
2018-03-14T21:42:22.989Z,67.70
2018-03-14T21:44:49.272Z,67.80
2018-03-14T21:47:16.234Z,68.20
2018-03-14T21:49:43.217Z,68.20
2018-03-14T21:52:09.402Z,68.20
2018-03-14T21:54:36.366Z,68.20
2018-03-14T21:57:14.958Z,68.20
2018-03-14T21:59:41.955Z,68.50
2018-03-14T22:02:08.228Z,68.50
2018-03-14T22:04:34.456Z,68.60
2018-03-14T22:07:00.716Z,69.60
2018-03-14T22:09:26.974Z,69.00
2018-03-14T22:11:53.176Z,69.10
2018-03-14T22:14:19.380Z,69.30
2018-03-14T22:16:46.337Z,69.40
2018-03-14T22:19:13.332Z,69.30
2018-03-14T22:21:39.621Z,69.30
2018-03-14T22:24:06.619Z,69.50
2018-03-14T22:26:32.803Z,69.50
2018-03-14T22:28:59.192Z,69.50
2018-03-14T22:31:26.193Z,69.40
2018-03-14T22:33:52.432Z,69.50
2018-03-14T22:36:18.734Z,69.50
2018-03-14T22:38:45.820Z,69.50
2018-03-14T22:41:12.092Z,69.50
2018-03-14T22:43:38.274Z,69.50
2018-03-14T22:46:05.436Z,69.50
2018-03-14T22:48:31.648Z,69.50
2018-03-14T22:50:57.865Z,69.60
2018-03-14T22:53:24.130Z,69.90
2018-03-14T22:55:50.373Z,69.90
2018-03-14T22:58:16.540Z,69.80
2018-03-14T23:00:42.806Z,69.90
2018-03-14T23:03:09.053Z,70.00
2018-03-14T23:05:35.284Z,69.70
2018-03-14T23:08:01.509Z,69.30
2018-03-14T23:10:27.793Z,69.70
2018-03-14T23:12:53.998Z,70.20
2018-03-14T23:15:20.948Z,70.30
2018-03-14T23:17:47.956Z,70.50
2018-03-14T23:20:15.913Z,70.50
2018-03-14T23:22:42.166Z,70.50
2018-03-14T23:25:08.626Z,70.40
2018-03-14T23:27:34.822Z,70.10
2018-03-14T23:30:01.015Z,70.40
2018-03-14T23:32:27.249Z,70.20
2018-03-14T23:34:53.415Z,70.10
2018-03-14T23:37:19.634Z,70.20
2018-03-14T23:39:45.898Z,70.10
2018-03-14T23:42:12.089Z,70.10
2018-03-14T23:44:38.310Z,69.50
2018-03-14T23:47:04.536Z,69.60
2018-03-14T23:49:30.764Z,70.10
2018-03-14T23:51:56.947Z,70.20
2018-03-14T23:54:23.872Z,70.10
2018-03-14T23:56:50.079Z,70.20
2018-03-14T23:59:16.286Z,70.10
